sensor_id;sensor_type;location;lat;lon;timestamp;pressure;altitude;pressure_sealevel;temperature;humidity
75221;BME280;63802;53.232;6.570;2022-12-29T00:01:13;99772.88;;;9.48;94.27
75221;BME280;63802;53.232;6.570;2022-12-29T00:03:39;99768.19;;;9.44;94.35
75221;BME280;63802;53.232;6.570;2022-12-29T00:06:04;99766.63;;;9.43;94.49
75221;BME280;63802;53.232;6.570;2022-12-29T00:08:30;99760.38;;;9.43;94.63
75221;BME280;63802;53.232;6.570;2022-12-29T00:11:19;99764.25;;;9.38;94.80
75221;BME280;63802;53.232;6.570;2022-12-29T00:13:45;99759.59;;;9.39;94.76
75221;BME280;63802;53.232;6.570;2022-12-29T00:16:30;99763.09;;;9.39;94.94
75221;BME280;63802;53.232;6.570;2022-12-29T00:18:57;99765.03;;;9.35;94.88
75221;BME280;63802;53.232;6.570;2022-12-29T00:21:23;99782.56;;;9.41;94.81
75221;BME280;63802;53.232;6.570;2022-12-29T00:24:16;99761.97;;;9.40;94.58
75221;BME280;63802;53.232;6.570;2022-12-29T00:29:50;99768.94;;;9.41;94.82
75221;BME280;63802;53.232;6.570;2022-12-29T00:32:34;99764.34;;;9.53;94.76
75221;BME280;63802;53.232;6.570;2022-12-29T00:35:25;99754.66;;;9.59;94.93
75221;BME280;63802;53.232;6.570;2022-12-29T00:37:52;99744.16;;;9.61;94.54
75221;BME280;63802;53.232;6.570;2022-12-29T00:40:55;99742.63;;;9.60;94.64
75221;BME280;63802;53.232;6.570;2022-12-29T00:43:42;99745.69;;;9.55;94.96
75221;BME280;63802;53.232;6.570;2022-12-29T00:46:26;99749.19;;;9.55;94.87
75221;BME280;63802;53.232;6.570;2022-12-29T00:48:51;99752.72;;;9.59;94.58
75221;BME280;63802;53.232;6.570;2022-12-29T00:51:35;99740.31;;;9.69;94.57
75221;BME280;63802;53.232;6.570;2022-12-29T00:54:01;99732.50;;;9.67;94.30
75221;BME280;63802;53.232;6.570;2022-12-29T00:56:26;99731.75;;;9.67;94.02
75221;BME280;63802;53.232;6.570;2022-12-29T00:58:51;99729.38;;;9.62;94.00
75221;BME280;63802;53.232;6.570;2022-12-29T01:01:17;99724.75;;;9.69;93.87
75221;BME280;63802;53.232;6.570;2022-12-29T01:03:42;99716.56;;;9.66;94.24
75221;BME280;63802;53.232;6.570;2022-12-29T01:06:09;99724.34;;;9.67;94.28
75221;BME280;63802;53.232;6.570;2022-12-29T01:08:35;99707.63;;;9.69;94.09
75221;BME280;63802;53.232;6.570;2022-12-29T01:11:04;99716.94;;;9.68;94.10
75221;BME280;63802;53.232;6.570;2022-12-29T01:13:30;99714.63;;;9.66;93.97
75221;BME280;63802;53.232;6.570;2022-12-29T01:15:56;99718.50;;;9.65;94.12
75221;BME280;63802;53.232;6.570;2022-12-29T01:18:23;99723.16;;;9.65;94.07
75221;BME280;63802;53.232;6.570;2022-12-29T01:20:49;99717.72;;;9.65;94.15
75221;BME280;63802;53.232;6.570;2022-12-29T01:23:15;99716.59;;;9.73;93.59
75221;BME280;63802;53.232;6.570;2022-12-29T01:25:40;99706.06;;;9.75;93.77
75221;BME280;63802;53.232;6.570;2022-12-29T01:28:06;99704.53;;;9.74;93.63
75221;BME280;63802;53.232;6.570;2022-12-29T01:30:34;99707.25;;;9.74;93.56
75221;BME280;63802;53.232;6.570;2022-12-29T01:33:00;99704.13;;;9.72;93.55
75221;BME280;63802;53.232;6.570;2022-12-29T01:35:25;99677.22;;;9.56;93.52
75221;BME280;63802;53.232;6.570;2022-12-29T01:37:51;99700.59;;;9.68;93.68
75221;BME280;63802;53.232;6.570;2022-12-29T01:40:16;99694.41;;;9.71;93.60
75221;BME280;63802;53.232;6.570;2022-12-29T01:42:41;99692.44;;;9.68;93.51
75221;BME280;63802;53.232;6.570;2022-12-29T01:45:12;99695.91;;;9.65;93.68
75221;BME280;63802;53.232;6.570;2022-12-29T01:47:43;99691.66;;;9.64;94.00
75221;BME280;63802;53.232;6.570;2022-12-29T01:50:26;99699.78;;;9.60;94.07
75221;BME280;63802;53.232;6.570;2022-12-29T01:53:00;99689.69;;;9.57;94.23
75221;BME280;63802;53.232;6.570;2022-12-29T01:55:32;99688.88;;;9.53;94.45
75221;BME280;63802;53.232;6.570;2022-12-29T01:58:01;99683.03;;;9.48;94.34
75221;BME280;63802;53.232;6.570;2022-12-29T02:00:28;99683.41;;;9.46;94.57
75221;BME280;63802;53.232;6.570;2022-12-29T02:02:54;99689.63;;;9.47;94.58
75221;BME280;63802;53.232;6.570;2022-12-29T02:05:27;99683.41;;;9.42;95.00
75221;BME280;63802;53.232;6.570;2022-12-29T02:07:54;99669.41;;;9.40;94.89
75221;BME280;63802;53.232;6.570;2022-12-29T02:10:21;99658.09;;;9.42;94.90
75221;BME280;63802;53.232;6.570;2022-12-29T02:12:48;99667.81;;;9.39;95.34
75221;BME280;63802;53.232;6.570;2022-12-29T02:15:13;99664.72;;;9.37;95.25
75221;BME280;63802;53.232;6.570;2022-12-29T02:21:01;99639.06;;;9.42;95.19
75221;BME280;63802;53.232;6.570;2022-12-29T02:24:05;99643.72;;;9.49;95.33
75221;BME280;63802;53.232;6.570;2022-12-29T02:26:40;99632.09;;;9.59;95.09
75221;BME280;63802;53.232;6.570;2022-12-29T02:42:36;99614.59;;;9.63;94.37
75221;BME280;63802;53.232;6.570;2022-12-29T02:47:52;99618.09;;;9.60;94.58
75221;BME280;63802;53.232;6.570;2022-12-29T02:50:51;99622.38;;;9.61;94.31
75221;BME280;63802;53.232;6.570;2022-12-29T02:53:15;99604.09;;;9.62;94.06
75221;BME280;63802;53.232;6.570;2022-12-29T02:55:49;99622.78;;;9.67;94.22
75221;BME280;63802;53.232;6.570;2022-12-29T03:01:21;99611.91;;;9.67;94.03
75221;BME280;63802;53.232;6.570;2022-12-29T03:12:03;99616.53;;;9.56;94.29
75221;BME280;63802;53.232;6.570;2022-12-29T03:14:58;99633.63;;;9.53;94.16
75221;BME280;63802;53.232;6.570;2022-12-29T03:17:53;99616.50;;;9.49;94.13
75221;BME280;63802;53.232;6.570;2022-12-29T03:20:25;99625.03;;;9.43;94.46
75221;BME280;63802;53.232;6.570;2022-12-29T03:22:56;99619.63;;;9.51;94.33
75221;BME280;63802;53.232;6.570;2022-12-29T03:25:30;99619.25;;;9.56;94.07
75221;BME280;63802;53.232;6.570;2022-12-29T03:28:08;99617.28;;;9.53;94.07
75221;BME280;63802;53.232;6.570;2022-12-29T03:30:35;99623.91;;;9.52;94.19
75221;BME280;63802;53.232;6.570;2022-12-29T03:33:04;99630.16;;;9.52;94.19
75221;BME280;63802;53.232;6.570;2022-12-29T03:35:34;99617.25;;;9.45;94.07
75221;BME280;63802;53.232;6.570;2022-12-29T03:38:13;99617.25;;;9.38;93.94
75221;BME280;63802;53.232;6.570;2022-12-29T03:40:43;99623.47;;;9.35;93.55
75221;BME280;63802;53.232;6.570;2022-12-29T03:43:10;99617.22;;;9.31;93.51
75221;BME280;63802;53.232;6.570;2022-12-29T03:45:37;99618.72;;;9.22;93.04
75221;BME280;63802;53.232;6.570;2022-12-29T03:48:03;99600.84;;;9.17;93.28
75221;BME280;63802;53.232;6.570;2022-12-29T03:50:28;99610.97;;;9.20;93.11
75221;BME280;63802;53.232;6.570;2022-12-29T03:52:53;99617.91;;;9.14;92.85
75221;BME280;63802;53.232;6.570;2022-12-29T03:55:19;99603.94;;;9.16;92.25
75221;BME280;63802;53.232;6.570;2022-12-29T03:57:44;99614.06;;;9.22;92.41
75221;BME280;63802;53.232;6.570;2022-12-29T04:00:10;99610.94;;;9.13;92.22
75221;BME280;63802;53.232;6.570;2022-12-29T04:02:36;99616.38;;;9.17;92.43
75221;BME280;63802;53.232;6.570;2022-12-29T04:05:01;99607.03;;;9.14;92.61
75221;BME280;63802;53.232;6.570;2022-12-29T04:07:28;99614.06;;;9.15;92.10
75221;BME280;63802;53.232;6.570;2022-12-29T04:09:53;99616.38;;;9.13;92.46
75221;BME280;63802;53.232;6.570;2022-12-29T04:12:18;99620.25;;;9.12;92.30
75221;BME280;63802;53.232;6.570;2022-12-29T04:14:44;99609.75;;;9.14;92.26
75221;BME280;63802;53.232;6.570;2022-12-29T04:17:09;99618.38;;;9.23;92.09
75221;BME280;63802;53.232;6.570;2022-12-29T04:19:36;99605.94;;;9.26;91.82
75221;BME280;63802;53.232;6.570;2022-12-29T04:22:01;99618.38;;;9.27;91.57
75221;BME280;63802;53.232;6.570;2022-12-29T04:24:27;99613.31;;;9.29;91.62
75221;BME280;63802;53.232;6.570;2022-12-29T04:26:52;99624.22;;;9.25;91.62
75221;BME280;63802;53.232;6.570;2022-12-29T04:29:17;99625.72;;;9.19;91.37
75221;BME280;63802;53.232;6.570;2022-12-29T04:31:43;99612.47;;;9.14;91.52
75221;BME280;63802;53.232;6.570;2022-12-29T04:34:08;99636.19;;;9.10;91.62
75221;BME280;63802;53.232;6.570;2022-12-29T04:36:33;99635.44;;;9.13;91.12
75221;BME280;63802;53.232;6.570;2022-12-29T04:38:59;99641.22;;;9.12;90.71
75221;BME280;63802;53.232;6.570;2022-12-29T04:41:24;99637.31;;;9.06;90.73
75221;BME280;63802;53.232;6.570;2022-12-29T04:43:50;99638.88;;;9.03;90.68
75221;BME280;63802;53.232;6.570;2022-12-29T04:46:15;99646.63;;;9.01;90.40
75221;BME280;63802;53.232;6.570;2022-12-29T04:48:41;99640.41;;;9.01;90.45
75221;BME280;63802;53.232;6.570;2022-12-29T04:51:06;99650.09;;;8.98;90.05
75221;BME280;63802;53.232;6.570;2022-12-29T04:53:31;99650.84;;;8.95;89.94
75221;BME280;63802;53.232;6.570;2022-12-29T04:55:57;99655.91;;;8.93;90.19
75221;BME280;63802;53.232;6.570;2022-12-29T04:58:22;99659.00;;;8.92;90.16
75221;BME280;63802;53.232;6.570;2022-12-29T05:00:48;99658.59;;;8.86;89.91
75221;BME280;63802;53.232;6.570;2022-12-29T05:03:13;99655.44;;;8.81;89.89
75221;BME280;63802;53.232;6.570;2022-12-29T05:05:38;99657.78;;;8.86;89.96
75221;BME280;63802;53.232;6.570;2022-12-29T05:08:04;99664.38;;;8.81;90.11
75221;BME280;63802;53.232;6.570;2022-12-29T05:10:29;99659.25;;;8.69;89.91
75221;BME280;63802;53.232;6.570;2022-12-29T05:12:55;99662.75;;;8.66;89.98
75221;BME280;63802;53.232;6.570;2022-12-29T05:15:20;99654.94;;;8.61;89.87
75221;BME280;63802;53.232;6.570;2022-12-29T05:17:46;99665.81;;;8.61;89.97
75221;BME280;63802;53.232;6.570;2022-12-29T05:20:11;99648.25;;;8.51;90.20
75221;BME280;63802;53.232;6.570;2022-12-29T05:22:37;99657.16;;;8.48;90.48
75221;BME280;63802;53.232;6.570;2022-12-29T05:25:03;99654.03;;;8.46;90.11
75221;BME280;63802;53.232;6.570;2022-12-29T05:27:28;99646.28;;;8.52;90.11
75221;BME280;63802;53.232;6.570;2022-12-29T05:29:53;99654.84;;;8.50;90.42
75221;BME280;63802;53.232;6.570;2022-12-29T05:32:19;99642.38;;;8.46;90.36
75221;BME280;63802;53.232;6.570;2022-12-29T05:34:44;99647.78;;;8.42;90.26
75221;BME280;63802;53.232;6.570;2022-12-29T05:37:10;99657.47;;;8.40;89.96
75221;BME280;63802;53.232;6.570;2022-12-29T05:39:35;99638.03;;;8.38;90.21
75221;BME280;63802;53.232;6.570;2022-12-29T05:42:01;99652.06;;;8.43;90.38
75221;BME280;63802;53.232;6.570;2022-12-29T05:44:26;99660.19;;;8.40;90.36
75221;BME280;63802;53.232;6.570;2022-12-29T05:46:51;99667.91;;;8.34;90.00
75221;BME280;63802;53.232;6.570;2022-12-29T05:49:17;99661.00;;;8.44;90.31
75221;BME280;63802;53.232;6.570;2022-12-29T05:51:42;99667.19;;;8.41;90.68
75221;BME280;63802;53.232;6.570;2022-12-29T05:54:08;99669.56;;;8.46;90.18
75221;BME280;63802;53.232;6.570;2022-12-29T05:56:33;99674.19;;;8.42;90.35
75221;BME280;63802;53.232;6.570;2022-12-29T05:58:58;99666.16;;;8.59;90.01
75221;BME280;63802;53.232;6.570;2022-12-29T06:01:24;99682.06;;;8.54;90.03
75221;BME280;63802;53.232;6.570;2022-12-29T06:03:49;99686.25;;;8.44;90.27
75221;BME280;63802;53.232;6.570;2022-12-29T06:06:14;99675.06;;;8.53;90.31
75221;BME280;63802;53.232;6.570;2022-12-29T06:08:40;99682.88;;;8.61;90.10
75221;BME280;63802;53.232;6.570;2022-12-29T06:11:06;99684.78;;;8.54;89.98
75221;BME280;63802;53.232;6.570;2022-12-29T06:13:31;99684.34;;;8.52;89.75
75221;BME280;63802;53.232;6.570;2022-12-29T06:15:56;99685.94;;;8.53;90.12
75221;BME280;63802;53.232;6.570;2022-12-29T06:18:22;99686.63;;;8.43;89.89
75221;BME280;63802;53.232;6.570;2022-12-29T06:20:47;99676.19;;;8.52;90.02
75221;BME280;63802;53.232;6.570;2022-12-29T06:23:13;99676.69;;;8.61;89.33
75221;BME280;63802;53.232;6.570;2022-12-29T06:25:39;99682.13;;;8.61;89.15
75221;BME280;63802;53.232;6.570;2022-12-29T06:28:04;99688.25;;;8.51;89.36
75221;BME280;63802;53.232;6.570;2022-12-29T06:30:30;99689.84;;;8.55;89.39
75221;BME280;63802;53.232;6.570;2022-12-29T06:32:56;99685.06;;;8.42;89.15
75221;BME280;63802;53.232;6.570;2022-12-29T06:35:21;99679.19;;;8.36;89.05
75221;BME280;63802;53.232;6.570;2022-12-29T06:37:50;99698.94;;;8.30;88.91
75221;BME280;63802;53.232;6.570;2022-12-29T06:40:15;99688.47;;;8.32;89.14
75221;BME280;63802;53.232;6.570;2022-12-29T06:42:41;99691.97;;;8.32;88.49
75221;BME280;63802;53.232;6.570;2022-12-29T06:45:06;99689.59;;;8.27;88.68
75221;BME280;63802;53.232;6.570;2022-12-29T06:47:32;99687.59;;;8.24;88.67
75221;BME280;63802;53.232;6.570;2022-12-29T06:49:58;99687.97;;;8.23;89.17
75221;BME280;63802;53.232;6.570;2022-12-29T06:52:23;99688.81;;;8.27;88.61
75221;BME280;63802;53.232;6.570;2022-12-29T06:54:49;99693.97;;;8.42;88.24
75221;BME280;63802;53.232;6.570;2022-12-29T06:57:14;99699.81;;;8.41;88.06
75221;BME280;63802;53.232;6.570;2022-12-29T06:59:40;99689.72;;;8.41;87.67
75221;BME280;63802;53.232;6.570;2022-12-29T07:02:05;99686.91;;;8.31;87.93
75221;BME280;63802;53.232;6.570;2022-12-29T07:04:30;99698.47;;;8.24;87.76
75221;BME280;63802;53.232;6.570;2022-12-29T07:06:56;99695.69;;;8.21;87.60
75221;BME280;63802;53.232;6.570;2022-12-29T07:09:21;99675.47;;;8.15;88.00
75221;BME280;63802;53.232;6.570;2022-12-29T07:11:46;99701.97;;;8.25;87.65
75221;BME280;63802;53.232;6.570;2022-12-29T07:14:12;99709.28;;;8.21;87.66
75221;BME280;63802;53.232;6.570;2022-12-29T07:16:38;99687.13;;;8.15;88.03
75221;BME280;63802;53.232;6.570;2022-12-29T07:19:04;99698.00;;;8.19;87.74
75221;BME280;63802;53.232;6.570;2022-12-29T07:21:30;99700.47;;;8.31;87.95
75221;BME280;63802;53.232;6.570;2022-12-29T07:23:55;99702.78;;;8.29;87.84
75221;BME280;63802;53.232;6.570;2022-12-29T07:26:21;99691.94;;;8.29;87.77
75221;BME280;63802;53.232;6.570;2022-12-29T07:28:46;99704.00;;;8.31;87.57
75221;BME280;63802;53.232;6.570;2022-12-29T07:31:17;99706.75;;;8.35;87.77
75221;BME280;63802;53.232;6.570;2022-12-29T07:33:43;99692.38;;;8.38;87.44
75221;BME280;63802;53.232;6.570;2022-12-29T07:36:09;99707.97;;;8.41;87.51
75221;BME280;63802;53.232;6.570;2022-12-29T07:38:35;99705.25;;;8.41;87.11
75221;BME280;63802;53.232;6.570;2022-12-29T07:41:00;99695.22;;;8.52;86.70
75221;BME280;63802;53.232;6.570;2022-12-29T07:43:25;99701.16;;;8.61;86.51
75221;BME280;63802;53.232;6.570;2022-12-29T07:45:51;99724.84;;;8.64;86.26
75221;BME280;63802;53.232;6.570;2022-12-29T07:48:16;99719.34;;;8.57;86.26
75221;BME280;63802;53.232;6.570;2022-12-29T07:50:41;99716.19;;;8.48;86.60
75221;BME280;63802;53.232;6.570;2022-12-29T07:53:07;99725.50;;;8.47;86.77
75221;BME280;63802;53.232;6.570;2022-12-29T07:55:32;99719.34;;;8.53;86.55
75221;BME280;63802;53.232;6.570;2022-12-29T07:57:58;99734.91;;;8.56;86.70
75221;BME280;63802;53.232;6.570;2022-12-29T08:00:23;99724.03;;;8.56;86.72
75221;BME280;63802;53.232;6.570;2022-12-29T08:02:50;99721.72;;;8.62;86.83
75221;BME280;63802;53.232;6.570;2022-12-29T08:05:16;99732.19;;;8.60;86.88
75221;BME280;63802;53.232;6.570;2022-12-29T08:07:45;99731.75;;;8.51;87.51
75221;BME280;63802;53.232;6.570;2022-12-29T08:10:11;99734.00;;;8.42;87.90
75221;BME280;63802;53.232;6.570;2022-12-29T08:12:38;99740.97;;;8.39;88.21
75221;BME280;63802;53.232;6.570;2022-12-29T08:15:04;99737.13;;;8.44;88.13
75221;BME280;63802;53.232;6.570;2022-12-29T08:17:30;99737.84;;;8.37;88.09
75221;BME280;63802;53.232;6.570;2022-12-29T08:19:55;99745.59;;;8.39;88.30
75221;BME280;63802;53.232;6.570;2022-12-29T08:22:21;99734.06;;;8.49;87.74
75221;BME280;63802;53.232;6.570;2022-12-29T08:24:46;99740.25;;;8.46;88.04
75221;BME280;63802;53.232;6.570;2022-12-29T08:27:11;99731.34;;;8.49;87.27
75221;BME280;63802;53.232;6.570;2022-12-29T08:29:37;99729.75;;;8.48;87.38
75221;BME280;63802;53.232;6.570;2022-12-29T08:32:02;99724.00;;;8.53;87.15
75221;BME280;63802;53.232;6.570;2022-12-29T08:34:28;99720.13;;;8.54;87.08
75221;BME280;63802;53.232;6.570;2022-12-29T08:36:53;99735.59;;;8.46;87.42
75221;BME280;63802;53.232;6.570;2022-12-29T08:39:19;99747.25;;;8.50;86.83
75221;BME280;63802;53.232;6.570;2022-12-29T08:41:44;99748.72;;;8.41;87.49
75221;BME280;63802;53.232;6.570;2022-12-29T08:44:10;99747.91;;;8.37;87.97
75221;BME280;63802;53.232;6.570;2022-12-29T08:46:35;99758.69;;;8.26;88.16
75221;BME280;63802;53.232;6.570;2022-12-29T08:49:00;99741.16;;;8.24;88.95
75221;BME280;63802;53.232;6.570;2022-12-29T08:51:26;99730.22;;;8.17;89.15
75221;BME280;63802;53.232;6.570;2022-12-29T08:53:51;99735.31;;;8.22;88.97
75221;BME280;63802;53.232;6.570;2022-12-29T08:56:17;99741.94;;;8.24;89.00
75221;BME280;63802;53.232;6.570;2022-12-29T08:58:43;99737.63;;;8.20;89.56
75221;BME280;63802;53.232;6.570;2022-12-29T09:01:08;99736.81;;;8.16;89.59
75221;BME280;63802;53.232;6.570;2022-12-29T09:03:34;99747.38;;;8.24;89.34
75221;BME280;63802;53.232;6.570;2022-12-29T09:06:00;99746.97;;;8.22;89.74
75221;BME280;63802;53.232;6.570;2022-12-29T09:08:25;99743.94;;;8.27;89.24
75221;BME280;63802;53.232;6.570;2022-12-29T09:10:50;99749.38;;;8.27;89.65
75221;BME280;63802;53.232;6.570;2022-12-29T09:13:18;99747.75;;;8.23;89.69
75221;BME280;63802;53.232;6.570;2022-12-29T09:15:43;99743.44;;;8.18;90.16
75221;BME280;63802;53.232;6.570;2022-12-29T09:18:10;99745.31;;;8.14;90.44
75221;BME280;63802;53.232;6.570;2022-12-29T09:20:36;99755.00;;;8.11;90.62
75221;BME280;63802;53.232;6.570;2022-12-29T09:23:02;99740.69;;;8.15;90.43
75221;BME280;63802;53.232;6.570;2022-12-29T09:25:28;99753.13;;;8.16;90.49
75221;BME280;63802;53.232;6.570;2022-12-29T09:27:54;99754.72;;;8.24;90.69
75221;BME280;63802;53.232;6.570;2022-12-29T09:30:21;99757.06;;;8.22;90.73
75221;BME280;63802;53.232;6.570;2022-12-29T09:32:48;99763.28;;;8.26;90.54
75221;BME280;63802;53.232;6.570;2022-12-29T09:35:14;99757.84;;;8.26;90.72
75221;BME280;63802;53.232;6.570;2022-12-29T09:37:40;99771.81;;;8.24;90.72
75221;BME280;63802;53.232;6.570;2022-12-29T09:40:07;99761.38;;;8.26;90.41
75221;BME280;63802;53.232;6.570;2022-12-29T09:42:42;99760.25;;;8.27;90.29
75221;BME280;63802;53.232;6.570;2022-12-29T09:45:18;99756.41;;;8.32;90.29
75221;BME280;63802;53.232;6.570;2022-12-29T09:47:45;99753.34;;;8.37;90.00
75221;BME280;63802;53.232;6.570;2022-12-29T09:50:24;99762.59;;;8.29;90.40
75221;BME280;63802;53.232;6.570;2022-12-29T09:53:05;99767.91;;;8.22;90.60
75221;BME280;63802;53.232;6.570;2022-12-29T09:55:43;99771.03;;;8.24;90.34
75221;BME280;63802;53.232;6.570;2022-12-29T09:58:15;99766.41;;;8.24;90.52
75221;BME280;63802;53.232;6.570;2022-12-29T10:00:52;99771.91;;;8.28;90.27
75221;BME280;63802;53.232;6.570;2022-12-29T10:03:20;99775.78;;;8.30;90.32
75221;BME280;63802;53.232;6.570;2022-12-29T10:24:56;99816.59;;;8.00;92.17
75221;BME280;63802;53.232;6.570;2022-12-29T10:27:22;99818.03;;;7.94;92.18
75221;BME280;63802;53.232;6.570;2022-12-29T10:29:54;99836.25;;;7.90;92.35
75221;BME280;63802;53.232;6.570;2022-12-29T10:34:53;99830.31;;;7.81;93.09
75221;BME280;63802;53.232;6.570;2022-12-29T10:39:55;99863.78;;;7.89;93.03
75221;BME280;63802;53.232;6.570;2022-12-29T10:42:32;99868.41;;;7.88;93.57
75221;BME280;63802;53.232;6.570;2022-12-29T10:44:58;99869.53;;;7.84;93.92
75221;BME280;63802;53.232;6.570;2022-12-29T10:47:29;99874.91;;;7.80;93.91
75221;BME280;63802;53.232;6.570;2022-12-29T10:49:58;99866.75;;;7.80;93.73
75221;BME280;63802;53.232;6.570;2022-12-29T10:52:26;99876.56;;;7.88;93.97
75221;BME280;63802;53.232;6.570;2022-12-29T10:55:03;99877.81;;;7.94;93.93
75221;BME280;63802;53.232;6.570;2022-12-29T10:57:36;99881.78;;;8.00;93.64
75221;BME280;63802;53.232;6.570;2022-12-29T11:00:14;99886.91;;;8.05;93.79
75221;BME280;63802;53.232;6.570;2022-12-29T11:05:57;99897.44;;;8.10;93.85
75221;BME280;63802;53.232;6.570;2022-12-29T11:08:33;99902.13;;;8.13;93.78
75221;BME280;63802;53.232;6.570;2022-12-29T11:11:03;99904.94;;;8.21;93.79
75221;BME280;63802;53.232;6.570;2022-12-29T11:13:35;99909.22;;;8.22;94.04
75221;BME280;63802;53.232;6.570;2022-12-29T11:16:11;99920.09;;;8.22;93.76
75221;BME280;63802;53.232;6.570;2022-12-29T11:18:38;99926.66;;;8.21;93.90
75221;BME280;63802;53.232;6.570;2022-12-29T11:21:32;99924.81;;;8.25;93.56
75221;BME280;63802;53.232;6.570;2022-12-29T11:24:02;99915.47;;;8.26;93.31
75221;BME280;63802;53.232;6.570;2022-12-29T11:26:30;99926.44;;;8.29;93.39
75221;BME280;63802;53.232;6.570;2022-12-29T11:31:54;99925.75;;;8.36;93.36
75221;BME280;63802;53.232;6.570;2022-12-29T11:34:34;99932.78;;;8.40;92.72
75221;BME280;63802;53.232;6.570;2022-12-29T11:37:06;99931.22;;;8.39;92.77
75221;BME280;63802;53.232;6.570;2022-12-29T11:42:15;99948.31;;;8.40;92.44
75221;BME280;63802;53.232;6.570;2022-12-29T11:44:44;99954.94;;;8.42;92.37
75221;BME280;63802;53.232;6.570;2022-12-29T11:47:20;99952.22;;;8.42;92.27
75221;BME280;63802;53.232;6.570;2022-12-29T11:49:54;99955.00;;;8.46;92.31
75221;BME280;63802;53.232;6.570;2022-12-29T11:52:22;99968.28;;;8.51;92.28
75221;BME280;63802;53.232;6.570;2022-12-29T11:54:49;99974.13;;;8.53;91.95
75221;BME280;63802;53.232;6.570;2022-12-29T11:57:16;99967.88;;;8.52;91.83
75221;BME280;63802;53.232;6.570;2022-12-29T12:07:59;99994.06;;;8.34;91.64
75221;BME280;63802;53.232;6.570;2022-12-29T12:11:12;100000.97;;;8.28;92.06
75221;BME280;63802;53.232;6.570;2022-12-29T12:13:51;100004.97;;;8.38;92.12
75221;BME280;63802;53.232;6.570;2022-12-29T12:16:22;99998.41;;;8.39;92.53
75221;BME280;63802;53.232;6.570;2022-12-29T12:18:53;100012.72;;;8.36;92.13
75221;BME280;63802;53.232;6.570;2022-12-29T12:24:11;100020.47;;;8.34;92.33
75221;BME280;63802;53.232;6.570;2022-12-29T12:29:25;100032.22;;;8.41;92.12
75221;BME280;63802;53.232;6.570;2022-12-29T12:32:08;100040.06;;;8.46;91.72
75221;BME280;63802;53.232;6.570;2022-12-29T12:34:42;100044.81;;;8.53;91.45
75221;BME280;63802;53.232;6.570;2022-12-29T12:37:51;100043.69;;;8.54;90.78
75221;BME280;63802;53.232;6.570;2022-12-29T12:43:31;100057.78;;;8.37;89.78
75221;BME280;63802;53.232;6.570;2022-12-29T12:51:52;100080.31;;;8.37;88.71
75221;BME280;63802;53.232;6.570;2022-12-29T13:00:56;100082.44;;;8.25;88.92
75221;BME280;63802;53.232;6.570;2022-12-29T13:09:21;100087.59;;;8.30;88.76
75221;BME280;63802;53.232;6.570;2022-12-29T13:20:43;100098.84;;;8.09;88.00
75221;BME280;63802;53.232;6.570;2022-12-29T13:23:26;100094.34;;;7.94;87.92
75221;BME280;63802;53.232;6.570;2022-12-29T13:28:41;100114.28;;;7.82;88.16
75221;BME280;63802;53.232;6.570;2022-12-29T13:31:33;100109.66;;;7.83;88.04
75221;BME280;63802;53.232;6.570;2022-12-29T13:36:42;100112.75;;;7.81;87.80
75221;BME280;63802;53.232;6.570;2022-12-29T13:39:22;100126.75;;;7.83;87.56
75221;BME280;63802;53.232;6.570;2022-12-29T13:41:51;100121.22;;;7.80;88.07
75221;BME280;63802;53.232;6.570;2022-12-29T13:44:25;100129.03;;;7.81;88.01
75221;BME280;63802;53.232;6.570;2022-12-29T13:46:54;100133.75;;;7.84;87.99
75221;BME280;63802;53.232;6.570;2022-12-29T13:49:22;100139.19;;;7.84;88.28
75221;BME280;63802;53.232;6.570;2022-12-29T13:51:52;100139.19;;;7.84;87.86
75221;BME280;63802;53.232;6.570;2022-12-29T13:55:36;100142.31;;;7.86;88.21
75221;BME280;63802;53.232;6.570;2022-12-29T14:00:22;100140.88;;;7.92;88.36
75221;BME280;63802;53.232;6.570;2022-12-29T14:07:57;100142.75;;;8.11;87.75
75221;BME280;63802;53.232;6.570;2022-12-29T14:10:34;100159.72;;;8.04;87.96
75221;BME280;63802;53.232;6.570;2022-12-29T14:13:11;100162.00;;;8.02;87.53
75221;BME280;63802;53.232;6.570;2022-12-29T14:15:40;100161.03;;;7.91;88.11
75221;BME280;63802;53.232;6.570;2022-12-29T14:18:27;100169.78;;;7.81;87.78
75221;BME280;63802;53.232;6.570;2022-12-29T14:21:00;100166.94;;;7.74;88.25
75221;BME280;63802;53.232;6.570;2022-12-29T14:23:44;100148.22;;;7.69;87.83
75221;BME280;63802;53.232;6.570;2022-12-29T14:26:16;100165.28;;;7.70;87.94
75221;BME280;63802;53.232;6.570;2022-12-29T14:28:47;100171.44;;;7.67;88.10
75221;BME280;63802;53.232;6.570;2022-12-29T14:36:40;100170.94;;;7.61;88.26
75221;BME280;63802;53.232;6.570;2022-12-29T14:42:14;100172.94;;;7.45;88.32
75221;BME280;63802;53.232;6.570;2022-12-29T14:44:53;100176.78;;;7.44;88.49
75221;BME280;63802;53.232;6.570;2022-12-29T14:49:55;100187.91;;;7.39;88.49
75221;BME280;63802;53.232;6.570;2022-12-29T14:52:24;100182.34;;;7.32;88.90
75221;BME280;63802;53.232;6.570;2022-12-29T14:57:42;100195.91;;;7.32;89.10
75221;BME280;63802;53.232;6.570;2022-12-29T15:00:30;100199.38;;;7.29;89.04
75221;BME280;63802;53.232;6.570;2022-12-29T15:03:06;100199.22;;;7.22;89.34
75221;BME280;63802;53.232;6.570;2022-12-29T15:05:52;100208.31;;;7.14;89.70
75221;BME280;63802;53.232;6.570;2022-12-29T15:08:21;100205.25;;;7.15;89.56
75221;BME280;63802;53.232;6.570;2022-12-29T15:11:15;100202.75;;;7.07;89.72
75221;BME280;63802;53.232;6.570;2022-12-29T15:13:43;100205.72;;;7.02;89.81
75221;BME280;63802;53.232;6.570;2022-12-29T15:18:53;100207.47;;;7.10;89.72
75221;BME280;63802;53.232;6.570;2022-12-29T15:21:24;100201.16;;;7.06;90.20
75221;BME280;63802;53.232;6.570;2022-12-29T15:23:50;100208.81;;;7.00;90.25
75221;BME280;63802;53.232;6.570;2022-12-29T15:26:16;100213.00;;;6.98;90.06
75221;BME280;63802;53.232;6.570;2022-12-29T15:28:48;100210.72;;;7.00;90.14
75221;BME280;63802;53.232;6.570;2022-12-29T15:31:23;100213.69;;;6.95;90.64
75221;BME280;63802;53.232;6.570;2022-12-29T15:33:54;100207.69;;;6.86;90.69
75221;BME280;63802;53.232;6.570;2022-12-29T15:36:21;100221.94;;;6.83;90.82
75221;BME280;63802;53.232;6.570;2022-12-29T15:38:48;100220.03;;;6.83;90.90
75221;BME280;63802;53.232;6.570;2022-12-29T15:41:34;100226.41;;;6.91;91.04
75221;BME280;63802;53.232;6.570;2022-12-29T15:44:45;100229.38;;;6.86;90.78